Shin Mei Maru — JG5617 — position and weather

sailwx.info

Track history (hours):
 
Tides and Currents Weather Stations Pressure Air Temp Water Temp Dewpoint Dewpoint Depression Visibility Wind Speed Wind Dir Waves Ship Positions

Shin Mei Maru

Last reported at 2015-Mar-04 13:32 UTC. Time now 2015-Mar-06 04:08 UTC.
Position N 35°12' E 139°46'.

Length 160 m; draft 6.8 m.

Type: Cargo ship. MMSI: 431100922.

Date/timePositionNaut miles runAvg speedWind from/ knotsBaromVisibWave heightAir tempDewpointWater temp
2015-Mar-04 13:32N 35°12' E 139°46'1313.5
2015-Mar-04 12:33N 35°25' E 139°44'1312.6
2015-Mar-04 11:33N 35°38' E 139°46'3 0.5
2015-Mar-04 06:32N 35°35' E 139°47'1313.2
2015-Mar-04 05:33N 35°23' E 139°45'1212.3
2015-Mar-04 04:33N 35°10' E 139°47'24715.4
2015-Mar-03 12:34N 34°01' E 134°59'1919.0
2015-Mar-03 11:33N 34°20' E 134°59'1919.3
2015-Mar-03 10:33N 34°33' E 135°17'8 1.4
2015-Mar-03 05:03N 34°37' E 135°25'0 0.0
2015-Mar-03 02:15N 34°37' E 135°25'0 0.0
2015-Mar-03 01:14N 34°37' E 135°25'3 4.1
2015-Mar-03 00:33N 34°36' E 135°21'1918.9
2015-Mar-02 23:33N 34°23' E 135°04'2019.6
2015-Mar-02 22:33N 34°04' E 134°59'23216.1
2015-Mar-02 08:10N 34°60' E 139°33'1219.9
2015-Mar-02 07:34N 35°08' E 139°44'1414.2
2015-Mar-02 06:34N 35°22' E 139°42'1414.1
2015-Mar-02 05:33N 35°35' E 139°47'3 0.4
2015-Mar-01 23:21N 35°38' E 139°46'810.1
2015-Mar-01 22:33N 35°31' E 139°52'1414.4
2015-Mar-01 21:34N 35°18' E 139°44'1515.1
2015-Mar-01 20:33N 35°03' E 139°46'1612.2
2015-Mar-01 19:16N 34°53' E 140°00'  
2015-Feb-25 14:09N 34°51' E 139°50'1118.9
2015-Feb-25 13:33N 35°00' E 139°42'1716.8
2015-Feb-25 12:33N 35°17' E 139°45'1413.7
2015-Feb-25 11:34N 35°30' E 139°51'9 1.8
2015-Feb-25 06:27N 35°38' E 139°46'1011.4
2015-Feb-25 05:33N 35°29' E 139°52'1313.1
2015-Feb-25 04:33N 35°17' E 139°46'1615.5
2015-Feb-25 03:33N 35°02' E 139°41'24217.2
2015-Feb-24 13:33N 33°59' E 134°58'2120.4
2015-Feb-24 12:31N 34°20' E 134°59'1919.6
2015-Feb-24 11:33N 34°32' E 135°16'8 8.3
2015-Feb-24 10:33N 34°37' E 135°25'0 0.0
2015-Feb-24 09:24N 34°37' E 135°25'0 0.0
2015-Feb-24 08:12N 34°37' E 135°25'0 0.0
2015-Feb-24 07:30N 34°37' E 135°25'0 0.0
2015-Feb-24 06:24N 34°37' E 135°25'0 0.0
2015-Feb-24 05:18N 34°37' E 135°25'0 0.0
2015-Feb-24 04:30N 34°37' E 135°25'0 0.0
2015-Feb-24 03:28N 34°37' E 135°25'6 6.8
2015-Feb-24 02:33N 34°34' E 135°18'1615.6
2015-Feb-24 01:33N 34°23' E 135°04'1616.4
2015-Feb-24 00:33N 34°08' E 134°58'24114.2
2015-Feb-23 07:33N 35°06' E 139°42'1313.4
2015-Feb-23 06:33N 35°19' E 139°43'1514.8
2015-Feb-23 05:33N 35°33' E 139°51'6 0.9
2015-Feb-22 22:33N 35°38' E 139°46'1111.3
2015-Feb-22 21:33N 35°27' E 139°49'1211.8
2015-Feb-22 20:33N 35°15' E 139°47'2510.1
2015-Feb-22 18:07N 34°58' E 140°08'  
Track history (hours):
 
Tides and Currents Weather Stations Pressure Air Temp Water Temp Dewpoint Dewpoint Depression Visibility Wind Speed Wind Dir Waves Ship Positions

Shin Mei Maru

Last reported at 2015-Mar-04 13:32 UTC. Time now 2015-Mar-06 04:08 UTC.
Position N 35°12' E 139°46'.

Length 160 m; draft 6.8 m.

Type: Cargo ship. MMSI: 431100922.

Date/timePositionNaut miles runAvg speedWind from/ knotsBaromVisibWave heightAir tempDewpointWater temp
2015-Mar-04 13:32N 35°12' E 139°46'1313.5
2015-Mar-04 12:33N 35°25' E 139°44'1312.6
2015-Mar-04 11:33N 35°38' E 139°46'3 0.5
2015-Mar-04 06:32N 35°35' E 139°47'1313.2
2015-Mar-04 05:33N 35°23' E 139°45'1212.3
2015-Mar-04 04:33N 35°10' E 139°47'24715.4
2015-Mar-03 12:34N 34°01' E 134°59'1919.0
2015-Mar-03 11:33N 34°20' E 134°59'1919.3
2015-Mar-03 10:33N 34°33' E 135°17'8 1.4
2015-Mar-03 05:03N 34°37' E 135°25'0 0.0
2015-Mar-03 02:15N 34°37' E 135°25'0 0.0
2015-Mar-03 01:14N 34°37' E 135°25'3 4.1
2015-Mar-03 00:33N 34°36' E 135°21'1918.9
2015-Mar-02 23:33N 34°23' E 135°04'2019.6
2015-Mar-02 22:33N 34°04' E 134°59'23216.1
2015-Mar-02 08:10N 34°60' E 139°33'1219.9
2015-Mar-02 07:34N 35°08' E 139°44'1414.2
2015-Mar-02 06:34N 35°22' E 139°42'1414.1
2015-Mar-02 05:33N 35°35' E 139°47'3 0.4
2015-Mar-01 23:21N 35°38' E 139°46'810.1
2015-Mar-01 22:33N 35°31' E 139°52'1414.4
2015-Mar-01 21:34N 35°18' E 139°44'1515.1
2015-Mar-01 20:33N 35°03' E 139°46'1612.2
2015-Mar-01 19:16N 34°53' E 140°00'  
2015-Feb-25 14:09N 34°51' E 139°50'1118.9
2015-Feb-25 13:33N 35°00' E 139°42'1716.8
2015-Feb-25 12:33N 35°17' E 139°45'1413.7
2015-Feb-25 11:34N 35°30' E 139°51'9 1.8
2015-Feb-25 06:27N 35°38' E 139°46'1011.4
2015-Feb-25 05:33N 35°29' E 139°52'1313.1
2015-Feb-25 04:33N 35°17' E 139°46'1615.5
2015-Feb-25 03:33N 35°02' E 139°41'24217.2
2015-Feb-24 13:33N 33°59' E 134°58'2120.4
2015-Feb-24 12:31N 34°20' E 134°59'1919.6
2015-Feb-24 11:33N 34°32' E 135°16'8 8.3
2015-Feb-24 10:33N 34°37' E 135°25'0 0.0
2015-Feb-24 09:24N 34°37' E 135°25'0 0.0
2015-Feb-24 08:12N 34°37' E 135°25'0 0.0
2015-Feb-24 07:30N 34°37' E 135°25'0 0.0
2015-Feb-24 06:24N 34°37' E 135°25'0 0.0
2015-Feb-24 05:18N 34°37' E 135°25'0 0.0
2015-Feb-24 04:30N 34°37' E 135°25'0 0.0
2015-Feb-24 03:28N 34°37' E 135°25'6 6.8
2015-Feb-24 02:33N 34°34' E 135°18'1615.6
2015-Feb-24 01:33N 34°23' E 135°04'1616.4
2015-Feb-24 00:33N 34°08' E 134°58'24114.2
2015-Feb-23 07:33N 35°06' E 139°42'1313.4
2015-Feb-23 06:33N 35°19' E 139°43'1514.8
2015-Feb-23 05:33N 35°33' E 139°51'6 0.9
2015-Feb-22 22:33N 35°38' E 139°46'1111.3
2015-Feb-22 21:33N 35°27' E 139°49'1211.8
2015-Feb-22 20:33N 35°15' E 139°47'2510.1
2015-Feb-22 18:07N 34°58' E 140°08'  

Dump ship's entire track history